createdAt,value
2022-12-17T00:02:59.288Z,99.48
2022-12-17T00:06:19.708Z,99.35
2022-12-17T00:09:42.612Z,99.00
2022-12-17T00:13:08.131Z,97.82
2022-12-17T00:16:30.097Z,98.33
2022-12-17T00:19:50.322Z,98.03
2022-12-17T00:23:20.488Z,98.51
2022-12-17T00:26:40.968Z,96.30
2022-12-17T00:30:01.670Z,97.01
2022-12-17T00:33:21.798Z,95.84
2022-12-17T00:36:44.449Z,95.97
2022-12-17T00:40:05.182Z,95.55
2022-12-17T00:43:35.990Z,94.66
2022-12-17T00:46:56.546Z,95.08
2022-12-17T00:50:17.084Z,94.72
2022-12-17T00:53:38.126Z,93.88
2022-12-17T00:56:58.765Z,94.68
2022-12-17T01:00:19.283Z,93.73
2022-12-17T01:03:39.705Z,93.90
2022-12-17T01:07:00.619Z,94.16
2022-12-17T01:10:23.865Z,93.79
2022-12-17T01:13:44.660Z,94.46
2022-12-17T01:17:08.813Z,93.60
2022-12-17T01:20:29.211Z,93.07
2022-12-17T01:23:49.901Z,92.48
2022-12-17T01:27:10.505Z,93.35
2022-12-17T01:30:30.571Z,92.07
2022-12-17T01:33:50.999Z,93.66
2022-12-17T01:37:13.108Z,93.61
2022-12-17T01:40:33.551Z,94.59
2022-12-17T01:43:54.378Z,93.45
2022-12-17T01:47:14.883Z,95.79
2022-12-17T01:50:38.611Z,96.07
2022-12-17T01:54:00.468Z,95.92
2022-12-17T01:57:20.781Z,95.22
2022-12-17T02:00:41.361Z,95.88
2022-12-17T02:04:01.951Z,96.26
2022-12-17T02:07:26.572Z,94.74
2022-12-17T02:10:53.252Z,95.30
2022-12-17T02:14:31.708Z,94.59
2022-12-17T02:17:56.998Z,94.23
2022-12-17T02:21:24.606Z,95.64
2022-12-17T02:24:48.997Z,95.72
2022-12-17T02:28:10.268Z,96.73
2022-12-17T02:31:30.694Z,96.58
2022-12-17T02:34:51.675Z,95.72
2022-12-17T02:38:13.295Z,93.05
2022-12-17T02:41:43.908Z,91.48
2022-12-17T02:45:04.314Z,90.87
2022-12-17T02:48:27.529Z,90.63
2022-12-17T02:51:51.080Z,90.09
2022-12-17T02:55:11.549Z,90.13
2022-12-17T02:58:32.202Z,90.18
2022-12-17T03:01:54.658Z,88.59
2022-12-17T03:05:42.674Z,89.84
2022-12-17T03:09:04.984Z,90.17
2022-12-17T03:12:25.217Z,89.52
2022-12-17T03:15:45.779Z,89.88
2022-12-17T03:19:06.033Z,89.92
2022-12-17T03:22:29.569Z,89.77
2022-12-17T03:25:56.600Z,90.01
2022-12-17T03:29:17.188Z,89.51
2022-12-17T03:32:40.365Z,89.24
2022-12-17T03:36:04.112Z,87.99
2022-12-17T03:39:24.821Z,87.87
2022-12-17T03:42:50.429Z,85.98
2022-12-17T03:46:14.618Z,87.44
2022-12-17T03:49:37.698Z,87.38
2022-12-17T03:52:58.232Z,86.12
2022-12-17T03:56:18.586Z,86.49
2022-12-17T03:59:38.807Z,86.49
2022-12-17T04:02:59.859Z,85.43
2022-12-17T04:06:20.440Z,84.91
2022-12-17T04:09:40.713Z,85.83
2022-12-17T04:13:01.057Z,86.14
2022-12-17T04:16:21.672Z,85.09
2022-12-17T04:19:42.194Z,86.19
2022-12-17T04:23:08.624Z,85.42
2022-12-17T04:26:28.781Z,85.21
2022-12-17T04:29:49.245Z,85.64
2022-12-17T04:33:09.617Z,84.46
2022-12-17T04:36:31.043Z,84.88
2022-12-17T04:40:02.010Z,85.08
2022-12-17T04:43:28.867Z,84.38
2022-12-17T04:46:49.413Z,83.73
2022-12-17T04:50:09.947Z,84.15
2022-12-17T04:53:33.717Z,85.35
2022-12-17T04:56:54.508Z,85.45
2022-12-17T05:00:19.199Z,84.58
2022-12-17T05:03:41.642Z,84.78
2022-12-17T05:07:02.448Z,85.44
2022-12-17T05:10:25.026Z,84.81
2022-12-17T05:13:46.782Z,85.25
2022-12-17T05:17:07.363Z,85.65
2022-12-17T05:20:28.025Z,84.21
2022-12-17T05:23:57.541Z,85.20
2022-12-17T05:27:17.850Z,85.82
2022-12-17T05:30:38.259Z,84.70
2022-12-17T05:33:58.711Z,84.62
2022-12-17T05:37:19.092Z,84.96
2022-12-17T05:40:39.602Z,84.70
2022-12-17T05:43:59.848Z,85.63
2022-12-17T05:47:20.368Z,84.85
2022-12-17T05:50:40.869Z,84.86
2022-12-17T05:54:01.323Z,86.13
2022-12-17T05:57:22.301Z,85.22
2022-12-17T06:00:42.648Z,85.00
2022-12-17T06:04:03.512Z,85.20
2022-12-17T06:07:23.900Z,85.27
2022-12-17T06:10:44.546Z,85.02
2022-12-17T06:14:22.190Z,84.88
2022-12-17T06:17:42.660Z,85.20
2022-12-17T06:21:03.442Z,85.15
2022-12-17T06:24:24.006Z,86.20
2022-12-17T06:27:44.348Z,85.42
2022-12-17T06:31:11.609Z,86.37
2022-12-17T06:34:33.491Z,86.80
2022-12-17T06:37:57.196Z,87.35
2022-12-17T06:41:20.835Z,87.71
2022-12-17T06:44:41.362Z,86.75
2022-12-17T06:48:04.423Z,87.43
2022-12-17T06:51:24.843Z,87.74
2022-12-17T06:55:16.279Z,87.84
2022-12-17T06:58:37.521Z,86.58
2022-12-17T07:01:58.332Z,86.30
2022-12-17T07:05:22.745Z,85.47
2022-12-17T07:08:43.461Z,85.43
2022-12-17T07:12:04.119Z,84.79
2022-12-17T07:15:28.172Z,85.01
2022-12-17T07:18:50.980Z,85.39
2022-12-17T07:22:14.579Z,84.84
2022-12-17T07:25:35.094Z,83.88
2022-12-17T07:28:58.750Z,83.97
2022-12-17T07:32:19.661Z,84.80
2022-12-17T07:35:46.315Z,83.53
2022-12-17T07:39:16.904Z,82.83
2022-12-17T07:42:41.389Z,82.91
2022-12-17T07:46:01.987Z,82.68
2022-12-17T07:49:26.153Z,81.54
2022-12-17T07:52:48.060Z,81.62
2022-12-17T07:56:11.833Z,81.37
2022-12-17T07:59:32.818Z,81.15
2022-12-17T08:02:53.755Z,80.38
2022-12-17T08:06:17.521Z,82.25
2022-12-17T08:09:41.985Z,81.30
2022-12-17T08:13:14.242Z,80.90
2022-12-17T08:16:38.023Z,80.71
2022-12-17T08:19:58.544Z,79.64
2022-12-17T08:23:20.137Z,78.04
2022-12-17T08:26:45.823Z,78.17
2022-12-17T08:30:08.086Z,77.78
2022-12-17T08:33:28.243Z,77.42
2022-12-17T08:36:49.668Z,77.45
2022-12-17T08:40:10.877Z,77.22
2022-12-17T08:43:33.401Z,77.75
2022-12-17T08:46:54.328Z,78.71
2022-12-17T08:50:15.077Z,78.87
2022-12-17T08:53:40.449Z,78.54
2022-12-17T08:57:05.195Z,79.16
2022-12-17T09:00:26.819Z,77.97
2022-12-17T09:03:48.044Z,78.45
2022-12-17T09:07:08.962Z,77.65
2022-12-17T09:10:29.366Z,77.33
2022-12-17T09:13:54.239Z,77.50
2022-12-17T09:17:18.353Z,76.75
2022-12-17T09:20:38.926Z,77.06
2022-12-17T09:23:59.496Z,75.03
2022-12-17T09:27:26.062Z,74.72
2022-12-17T09:30:47.109Z,75.88
2022-12-17T09:34:07.763Z,75.16
2022-12-17T09:37:28.395Z,74.38
2022-12-17T09:40:49.669Z,73.81
2022-12-17T09:44:11.537Z,74.22
2022-12-17T09:47:38.212Z,73.99
2022-12-17T09:51:01.359Z,74.23
2022-12-17T09:54:25.156Z,73.87
2022-12-17T10:01:44.575Z,75.10
2022-12-17T10:05:05.987Z,74.74
2022-12-17T10:08:30.699Z,74.89
2022-12-17T10:11:54.350Z,75.68
2022-12-17T10:15:15.089Z,75.66
2022-12-17T10:18:38.932Z,75.65
2022-12-17T10:21:59.816Z,75.59
2022-12-17T10:25:26.718Z,77.30
2022-12-17T10:28:47.745Z,77.48
2022-12-17T10:32:08.608Z,77.13
2022-12-17T10:35:38.319Z,77.64
2022-12-17T10:38:59.654Z,76.49
2022-12-17T10:42:24.011Z,77.09
2022-12-17T10:45:48.643Z,77.16
2022-12-17T10:49:11.595Z,76.68
2022-12-17T10:52:38.803Z,75.92
2022-12-17T10:56:09.253Z,78.13
2022-12-17T10:59:32.989Z,76.53
2022-12-17T11:02:54.009Z,77.52
2022-12-17T11:06:15.581Z,76.48
2022-12-17T11:09:43.286Z,76.23
2022-12-17T11:13:07.690Z,75.34
2022-12-17T11:16:35.913Z,74.68
2022-12-17T11:20:16.750Z,75.59
2022-12-17T11:23:39.598Z,74.25
2022-12-17T11:27:00.419Z,75.03
2022-12-17T11:30:24.024Z,75.23
2022-12-17T11:33:49.141Z,75.49
2022-12-17T11:37:12.492Z,76.13
2022-12-17T11:40:33.193Z,76.86
2022-12-17T11:43:59.812Z,76.82
2022-12-17T11:47:35.901Z,76.72
2022-12-17T11:51:23.085Z,77.79
2022-12-17T11:54:52.414Z,77.40
2022-12-17T11:58:31.935Z,79.48
2022-12-17T12:01:58.869Z,79.95
2022-12-17T12:05:38.261Z,78.73
2022-12-17T12:09:14.482Z,78.73
2022-12-17T12:12:42.872Z,79.30
2022-12-17T12:16:17.328Z,78.33
2022-12-17T12:19:38.709Z,78.36
2022-12-17T12:23:02.313Z,78.28
2022-12-17T12:26:22.988Z,79.30
2022-12-17T12:29:55.728Z,78.40
2022-12-17T12:33:19.658Z,80.02
2022-12-17T12:36:39.948Z,80.53
2022-12-17T12:40:08.994Z,81.21
2022-12-17T12:43:31.663Z,82.56
2022-12-17T12:47:03.322Z,81.41
2022-12-17T12:50:47.827Z,81.28
2022-12-17T12:54:18.096Z,82.04
2022-12-17T12:57:48.251Z,82.03
2022-12-17T13:01:09.326Z,82.00
2022-12-17T13:04:42.700Z,82.63
2022-12-17T13:07:44.672Z,81.05
2022-12-17T13:10:47.487Z,81.87
2022-12-17T13:13:56.283Z,82.13
2022-12-17T13:17:02.256Z,83.52
2022-12-17T13:20:42.967Z,83.42
2022-12-17T13:23:44.797Z,84.09
2022-12-17T13:26:47.081Z,84.63
2022-12-17T13:29:49.253Z,83.38
2022-12-17T13:32:57.919Z,85.16
2022-12-17T13:36:22.874Z,84.21
2022-12-17T13:39:27.948Z,86.25
2022-12-17T13:42:36.806Z,85.26
2022-12-17T13:45:38.939Z,85.47
2022-12-17T13:48:41.342Z,85.94
2022-12-17T13:51:43.429Z,87.30
2022-12-17T13:54:46.422Z,86.76
2022-12-17T13:57:49.771Z,87.43
2022-12-17T14:00:52.515Z,87.90
2022-12-17T14:04:06.949Z,87.80
2022-12-17T14:07:10.285Z,88.60
2022-12-17T14:10:15.793Z,88.76
2022-12-17T14:13:18.348Z,88.66
2022-12-17T14:16:21.517Z,88.59
2022-12-17T14:19:24.394Z,89.03
2022-12-17T14:22:30.911Z,87.95
2022-12-17T14:25:38.133Z,88.32
2022-12-17T14:28:50.464Z,88.91
2022-12-17T14:31:54.162Z,87.87
2022-12-17T14:35:00.813Z,87.87
2022-12-17T14:38:04.231Z,88.00
2022-12-17T14:41:34.129Z,88.12
2022-12-17T14:44:36.443Z,87.90
2022-12-17T14:47:38.475Z,88.11
2022-12-17T14:50:40.327Z,87.04
2022-12-17T14:53:42.118Z,86.68
2022-12-17T14:56:45.129Z,87.89
2022-12-17T14:59:49.319Z,86.58
2022-12-17T15:02:52.227Z,86.95
2022-12-17T15:05:56.371Z,86.71
2022-12-17T15:08:58.361Z,86.66
2022-12-17T15:12:00.271Z,86.35
2022-12-17T15:15:02.119Z,86.53
2022-12-17T15:18:04.226Z,85.29
2022-12-17T15:21:06.152Z,85.08
2022-12-17T15:24:10.603Z,86.20
2022-12-17T15:27:13.445Z,85.59
2022-12-17T15:30:16.129Z,84.91
2022-12-17T15:33:18.041Z,85.96
2022-12-17T15:36:20.339Z,84.38
2022-12-17T15:39:22.461Z,84.97
2022-12-17T15:42:43.072Z,84.68
2022-12-17T15:45:45.983Z,84.16
2022-12-17T15:48:50.522Z,85.01
2022-12-17T15:51:52.807Z,84.69
2022-12-17T15:54:54.726Z,83.83
2022-12-17T15:57:56.812Z,83.68
2022-12-17T16:01:01.203Z,83.52
2022-12-17T16:04:07.898Z,84.20
2022-12-17T16:07:14.694Z,83.90
2022-12-17T16:10:17.155Z,83.79
2022-12-17T16:13:19.055Z,83.31
2022-12-17T16:16:21.467Z,84.43
2022-12-17T16:19:23.770Z,84.55
2022-12-17T16:22:26.456Z,84.27
2022-12-17T16:25:28.734Z,84.47
2022-12-17T16:28:31.318Z,84.96
2022-12-17T16:31:33.479Z,85.03
2022-12-17T16:34:35.872Z,84.33
2022-12-17T16:37:41.040Z,84.54
2022-12-17T16:40:43.026Z,84.56
2022-12-17T16:43:45.465Z,85.06
2022-12-17T16:46:47.826Z,85.59
2022-12-17T16:49:52.765Z,85.09
2022-12-17T16:52:54.797Z,85.76
2022-12-17T16:55:57.920Z,86.22
2022-12-17T16:59:00.260Z,86.20
2022-12-17T17:02:03.586Z,85.70
2022-12-17T17:05:06.195Z,85.72
2022-12-17T17:08:08.719Z,85.93
2022-12-17T17:11:14.639Z,85.37
2022-12-17T17:14:17.307Z,84.67
2022-12-17T17:17:19.346Z,84.92
2022-12-17T17:20:41.556Z,84.81
2022-12-17T17:23:43.738Z,84.12
2022-12-17T17:26:45.841Z,84.38
2022-12-17T17:29:47.964Z,84.24
2022-12-17T17:32:50.149Z,83.73
2022-12-17T17:35:52.443Z,84.29
2022-12-17T17:38:54.733Z,84.10
2022-12-17T17:41:56.806Z,83.56
2022-12-17T17:44:58.955Z,84.45
2022-12-17T17:48:01.094Z,84.57
2022-12-17T17:51:04.842Z,85.23
2022-12-17T17:54:13.973Z,85.46
2022-12-17T17:57:16.225Z,85.66
2022-12-17T18:00:21.521Z,86.18
2022-12-17T18:03:23.612Z,86.04
2022-12-17T18:06:26.544Z,86.03
2022-12-17T18:09:28.668Z,85.89
2022-12-17T18:12:49.084Z,85.57
2022-12-17T18:15:51.344Z,85.50
2022-12-17T18:18:55.092Z,85.49
2022-12-17T18:21:57.134Z,86.09
2022-12-17T18:24:59.164Z,85.27
2022-12-17T18:28:01.090Z,85.61
2022-12-17T18:31:14.352Z,86.28
2022-12-17T18:34:17.585Z,86.51
2022-12-17T18:37:19.771Z,86.54
2022-12-17T18:40:21.848Z,86.60
2022-12-17T18:43:24.129Z,86.22
2022-12-17T18:46:26.775Z,86.42
2022-12-17T18:49:28.988Z,86.15
2022-12-17T18:52:30.947Z,86.21
2022-12-17T18:55:32.858Z,85.96
2022-12-17T18:58:35.238Z,86.39
2022-12-17T19:01:38.379Z,86.36
2022-12-17T19:04:40.759Z,86.06
2022-12-17T19:07:43.276Z,86.54
2022-12-17T19:10:45.321Z,86.40
2022-12-17T19:13:47.644Z,86.25
2022-12-17T19:16:51.631Z,86.22
2022-12-17T19:19:54.116Z,86.19
2022-12-17T19:22:56.367Z,86.28
2022-12-17T19:26:05.879Z,86.52
2022-12-17T19:29:09.428Z,86.47
2022-12-17T19:32:11.422Z,86.47
2022-12-17T19:35:15.947Z,87.15
2022-12-17T19:38:17.725Z,87.09
2022-12-17T19:41:19.849Z,87.04
2022-12-17T19:44:22.158Z,87.03
2022-12-17T19:47:24.426Z,86.29
2022-12-17T19:50:27.571Z,86.57
2022-12-17T19:53:29.840Z,86.71
2022-12-17T19:56:32.133Z,86.98
2022-12-17T19:59:34.011Z,86.73
2022-12-17T20:02:36.277Z,86.60
2022-12-17T20:05:38.327Z,86.71
2022-12-17T20:08:41.116Z,86.48
2022-12-17T20:11:43.763Z,86.32
2022-12-17T20:14:47.372Z,86.72
2022-12-17T20:17:49.622Z,86.74
2022-12-17T20:20:51.961Z,86.32
2022-12-17T20:23:56.663Z,86.62
2022-12-17T20:26:59.180Z,86.88
2022-12-17T20:30:01.639Z,86.55
2022-12-17T20:33:03.550Z,86.07
2022-12-17T20:36:07.129Z,85.91
2022-12-17T20:39:09.246Z,86.34
2022-12-17T20:42:11.982Z,87.47
2022-12-17T20:45:13.995Z,87.90
2022-12-17T20:48:16.035Z,88.04
2022-12-17T20:51:19.154Z,87.95
2022-12-17T20:54:21.417Z,88.32
2022-12-17T20:57:23.554Z,88.39
2022-12-17T21:00:25.490Z,88.47
2022-12-17T21:03:27.745Z,89.03
2022-12-17T21:06:53.205Z,89.05
2022-12-17T21:09:55.433Z,89.26
2022-12-17T21:13:16.350Z,89.20
2022-12-17T21:16:28.289Z,88.49
2022-12-17T21:19:30.460Z,88.83
2022-12-17T21:22:32.516Z,88.86
2022-12-17T21:25:34.815Z,89.61
2022-12-17T21:28:38.705Z,89.63
2022-12-17T21:31:42.101Z,89.08
2022-12-17T21:34:44.099Z,89.40
2022-12-17T21:37:45.880Z,89.15
2022-12-17T21:40:48.808Z,88.95
2022-12-17T21:43:54.332Z,88.84
2022-12-17T21:46:56.767Z,89.14
2022-12-17T21:49:58.802Z,89.77
2022-12-17T21:53:00.686Z,89.40
2022-12-17T21:56:07.297Z,90.08
2022-12-17T21:59:10.879Z,90.69
2022-12-17T22:02:13.974Z,90.76
2022-12-17T22:05:18.062Z,90.52
2022-12-17T22:08:20.267Z,90.69
2022-12-17T22:11:27.566Z,89.84
2022-12-17T22:14:29.671Z,89.99
2022-12-17T22:17:31.731Z,88.76
2022-12-17T22:20:33.540Z,89.32
2022-12-17T22:23:36.073Z,89.43
2022-12-17T22:26:39.526Z,88.95
2022-12-17T22:30:03.549Z,89.30
2022-12-17T22:33:12.075Z,88.85
2022-12-17T22:39:19.262Z,88.31
2022-12-17T22:43:10.078Z,88.54
2022-12-17T22:44:45.554Z,87.73
2022-12-17T22:46:55.278Z,88.10
2022-12-17T22:49:57.320Z,88.01
2022-12-17T22:52:59.738Z,86.90
2022-12-17T22:56:13.372Z,87.62
2022-12-17T22:59:18.839Z,87.30
2022-12-17T23:02:20.856Z,86.47
2022-12-17T23:05:22.920Z,87.63
2022-12-17T23:08:24.926Z,86.48
2022-12-17T23:11:27.349Z,86.75
2022-12-17T23:14:29.312Z,86.59
2022-12-17T23:17:31.356Z,87.94
2022-12-17T23:20:34.237Z,87.47
2022-12-17T23:23:36.408Z,87.68
2022-12-17T23:26:39.518Z,87.23
2022-12-17T23:29:41.296Z,86.75
2022-12-17T23:32:43.551Z,87.57
2022-12-17T23:35:45.401Z,87.36
2022-12-17T23:38:48.250Z,86.50
2022-12-17T23:41:50.166Z,85.92
2022-12-17T23:44:52.041Z,86.80
2022-12-17T23:47:54.204Z,86.43
2022-12-17T23:51:00.767Z,86.04
2022-12-17T23:54:10.920Z,87.20
2022-12-17T23:57:15.121Z,86.96
